sensor_id;sensor_type;location;lat;lon;timestamp;P1;durP1;ratioP1;P2;durP2;ratioP2
2748;SDS011;1382;52.142;11.618;2022-11-20T00:00:39;14.37;;;7.53;;
2748;SDS011;1382;52.142;11.618;2022-11-20T00:03:06;15.30;;;8.55;;
2748;SDS011;1382;52.142;11.618;2022-11-20T00:05:33;12.90;;;7.97;;
2748;SDS011;1382;52.142;11.618;2022-11-20T00:07:59;14.07;;;7.93;;
2748;SDS011;1382;52.142;11.618;2022-11-20T00:10:26;12.30;;;6.67;;
2748;SDS011;1382;52.142;11.618;2022-11-20T00:12:53;14.48;;;9.18;;
2748;SDS011;1382;52.142;11.618;2022-11-20T00:15:20;16.27;;;7.90;;
2748;SDS011;1382;52.142;11.618;2022-11-20T00:17:48;16.30;;;9.30;;
2748;SDS011;1382;52.142;11.618;2022-11-20T00:20:14;20.50;;;10.87;;
2748;SDS011;1382;52.142;11.618;2022-11-20T00:22:41;17.27;;;9.87;;
2748;SDS011;1382;52.142;11.618;2022-11-20T00:25:08;18.90;;;8.60;;
2748;SDS011;1382;52.142;11.618;2022-11-20T00:27:35;14.80;;;8.47;;
2748;SDS011;1382;52.142;11.618;2022-11-20T00:30:02;19.03;;;11.27;;
2748;SDS011;1382;52.142;11.618;2022-11-20T00:32:29;19.07;;;10.80;;
2748;SDS011;1382;52.142;11.618;2022-11-20T00:34:57;19.50;;;9.57;;
2748;SDS011;1382;52.142;11.618;2022-11-20T00:37:24;18.20;;;10.17;;
2748;SDS011;1382;52.142;11.618;2022-11-20T00:39:51;14.88;;;9.70;;
2748;SDS011;1382;52.142;11.618;2022-11-20T00:42:18;16.25;;;10.60;;
2748;SDS011;1382;52.142;11.618;2022-11-20T00:44:44;13.73;;;9.23;;
2748;SDS011;1382;52.142;11.618;2022-11-20T00:47:11;14.25;;;8.88;;
2748;SDS011;1382;52.142;11.618;2022-11-20T00:49:38;15.52;;;9.95;;
2748;SDS011;1382;52.142;11.618;2022-11-20T00:52:06;16.80;;;10.30;;
2748;SDS011;1382;52.142;11.618;2022-11-20T00:54:32;13.20;;;8.02;;
2748;SDS011;1382;52.142;11.618;2022-11-20T00:56:59;22.75;;;11.00;;
2748;SDS011;1382;52.142;11.618;2022-11-20T00:59:26;14.67;;;9.70;;
2748;SDS011;1382;52.142;11.618;2022-11-20T01:01:53;15.57;;;10.40;;
2748;SDS011;1382;52.142;11.618;2022-11-20T01:04:20;14.87;;;8.50;;
2748;SDS011;1382;52.142;11.618;2022-11-20T01:06:47;11.77;;;8.47;;
2748;SDS011;1382;52.142;11.618;2022-11-20T01:09:15;19.67;;;10.23;;
2748;SDS011;1382;52.142;11.618;2022-11-20T01:11:42;18.95;;;10.77;;
2748;SDS011;1382;52.142;11.618;2022-11-20T01:14:11;18.13;;;10.70;;
2748;SDS011;1382;52.142;11.618;2022-11-20T01:16:40;15.37;;;8.53;;
2748;SDS011;1382;52.142;11.618;2022-11-20T01:19:09;14.60;;;8.00;;
2748;SDS011;1382;52.142;11.618;2022-11-20T01:21:43;19.27;;;10.48;;
2748;SDS011;1382;52.142;11.618;2022-11-20T01:24:12;15.77;;;8.60;;
2748;SDS011;1382;52.142;11.618;2022-11-20T01:26:41;16.25;;;10.93;;
2748;SDS011;1382;52.142;11.618;2022-11-20T01:29:10;16.20;;;10.23;;
2748;SDS011;1382;52.142;11.618;2022-11-20T01:31:41;16.97;;;10.60;;
2748;SDS011;1382;52.142;11.618;2022-11-20T01:34:09;15.70;;;9.13;;
2748;SDS011;1382;52.142;11.618;2022-11-20T01:36:38;15.60;;;9.23;;
2748;SDS011;1382;52.142;11.618;2022-11-20T01:39:07;17.20;;;11.37;;
2748;SDS011;1382;52.142;11.618;2022-11-20T01:41:38;17.02;;;10.15;;
2748;SDS011;1382;52.142;11.618;2022-11-20T01:44:05;19.70;;;10.20;;
2748;SDS011;1382;52.142;11.618;2022-11-20T01:46:32;18.73;;;10.10;;
2748;SDS011;1382;52.142;11.618;2022-11-20T01:49:02;22.23;;;10.17;;
2748;SDS011;1382;52.142;11.618;2022-11-20T01:51:35;17.87;;;9.60;;
2748;SDS011;1382;52.142;11.618;2022-11-20T01:54:06;17.13;;;10.10;;
2748;SDS011;1382;52.142;11.618;2022-11-20T01:56:39;14.20;;;8.97;;
2748;SDS011;1382;52.142;11.618;2022-11-20T01:59:09;14.43;;;9.23;;
2748;SDS011;1382;52.142;11.618;2022-11-20T02:01:38;16.90;;;9.77;;
2748;SDS011;1382;52.142;11.618;2022-11-20T02:04:05;19.30;;;10.48;;
2748;SDS011;1382;52.142;11.618;2022-11-20T02:06:35;15.33;;;9.97;;
2748;SDS011;1382;52.142;11.618;2022-11-20T02:09:05;20.88;;;10.63;;
2748;SDS011;1382;52.142;11.618;2022-11-20T02:11:32;20.67;;;11.13;;
2748;SDS011;1382;52.142;11.618;2022-11-20T02:14:00;19.67;;;9.90;;
2748;SDS011;1382;52.142;11.618;2022-11-20T02:16:27;15.20;;;11.18;;
2748;SDS011;1382;52.142;11.618;2022-11-20T02:18:57;19.13;;;10.73;;
2748;SDS011;1382;52.142;11.618;2022-11-20T02:21:28;27.85;;;10.85;;
2748;SDS011;1382;52.142;11.618;2022-11-20T02:24:06;17.92;;;11.15;;
2748;SDS011;1382;52.142;11.618;2022-11-20T02:26:38;19.38;;;9.15;;
2748;SDS011;1382;52.142;11.618;2022-11-20T02:29:08;15.02;;;9.45;;
2748;SDS011;1382;52.142;11.618;2022-11-20T02:31:40;17.90;;;10.57;;
2748;SDS011;1382;52.142;11.618;2022-11-20T02:34:08;20.77;;;10.40;;
2748;SDS011;1382;52.142;11.618;2022-11-20T02:36:35;20.30;;;12.07;;
2748;SDS011;1382;52.142;11.618;2022-11-20T02:39:06;15.73;;;10.57;;
2748;SDS011;1382;52.142;11.618;2022-11-20T02:41:34;17.17;;;11.03;;
2748;SDS011;1382;52.142;11.618;2022-11-20T02:44:02;16.40;;;9.20;;
2748;SDS011;1382;52.142;11.618;2022-11-20T02:46:30;16.10;;;10.70;;
2748;SDS011;1382;52.142;11.618;2022-11-20T02:48:56;16.27;;;7.70;;
2748;SDS011;1382;52.142;11.618;2022-11-20T02:51:23;18.37;;;9.73;;
2748;SDS011;1382;52.142;11.618;2022-11-20T02:53:50;16.33;;;9.60;;
2748;SDS011;1382;52.142;11.618;2022-11-20T02:56:18;16.83;;;9.73;;
2748;SDS011;1382;52.142;11.618;2022-11-20T02:58:45;16.60;;;9.87;;
2748;SDS011;1382;52.142;11.618;2022-11-20T03:01:12;20.50;;;12.10;;
2748;SDS011;1382;52.142;11.618;2022-11-20T03:03:39;16.00;;;10.60;;
2748;SDS011;1382;52.142;11.618;2022-11-20T03:06:06;15.35;;;9.80;;
2748;SDS011;1382;52.142;11.618;2022-11-20T03:08:33;13.63;;;9.57;;
2748;SDS011;1382;52.142;11.618;2022-11-20T03:11:02;15.37;;;9.90;;
2748;SDS011;1382;52.142;11.618;2022-11-20T03:13:31;16.73;;;9.60;;
2748;SDS011;1382;52.142;11.618;2022-11-20T03:15:58;17.48;;;8.90;;
2748;SDS011;1382;52.142;11.618;2022-11-20T03:18:27;21.67;;;11.37;;
2748;SDS011;1382;52.142;11.618;2022-11-20T03:20:56;17.43;;;10.90;;
2748;SDS011;1382;52.142;11.618;2022-11-20T03:23:23;15.53;;;8.73;;
2748;SDS011;1382;52.142;11.618;2022-11-20T03:25:50;16.23;;;8.70;;
2748;SDS011;1382;52.142;11.618;2022-11-20T03:28:17;12.60;;;9.17;;
2748;SDS011;1382;52.142;11.618;2022-11-20T03:30:45;21.43;;;9.90;;
2748;SDS011;1382;52.142;11.618;2022-11-20T03:33:12;16.40;;;9.50;;
2748;SDS011;1382;52.142;11.618;2022-11-20T03:35:39;16.07;;;9.63;;
2748;SDS011;1382;52.142;11.618;2022-11-20T03:38:05;14.50;;;8.23;;
2748;SDS011;1382;52.142;11.618;2022-11-20T03:40:33;14.77;;;10.47;;
2748;SDS011;1382;52.142;11.618;2022-11-20T03:43:00;19.73;;;12.87;;
2748;SDS011;1382;52.142;11.618;2022-11-20T03:45:27;15.00;;;9.55;;
2748;SDS011;1382;52.142;11.618;2022-11-20T03:47:55;14.20;;;9.93;;
2748;SDS011;1382;52.142;11.618;2022-11-20T03:50:21;17.53;;;9.47;;
2748;SDS011;1382;52.142;11.618;2022-11-20T03:52:48;15.40;;;10.82;;
2748;SDS011;1382;52.142;11.618;2022-11-20T03:55:15;18.37;;;9.50;;
2748;SDS011;1382;52.142;11.618;2022-11-20T03:57:42;17.03;;;10.87;;
2748;SDS011;1382;52.142;11.618;2022-11-20T04:00:09;17.10;;;8.20;;
2748;SDS011;1382;52.142;11.618;2022-11-20T04:02:36;17.93;;;9.53;;
2748;SDS011;1382;52.142;11.618;2022-11-20T04:05:05;12.30;;;9.83;;
2748;SDS011;1382;52.142;11.618;2022-11-20T04:07:33;12.63;;;8.13;;
2748;SDS011;1382;52.142;11.618;2022-11-20T04:10:00;16.13;;;8.97;;
2748;SDS011;1382;52.142;11.618;2022-11-20T04:12:27;15.27;;;8.60;;
2748;SDS011;1382;52.142;11.618;2022-11-20T04:14:57;12.80;;;8.93;;
2748;SDS011;1382;52.142;11.618;2022-11-20T04:17:24;13.47;;;8.97;;
2748;SDS011;1382;52.142;11.618;2022-11-20T04:19:50;13.83;;;8.27;;
2748;SDS011;1382;52.142;11.618;2022-11-20T04:22:18;12.33;;;7.37;;
2748;SDS011;1382;52.142;11.618;2022-11-20T04:24:45;11.93;;;7.73;;
2748;SDS011;1382;52.142;11.618;2022-11-20T04:27:12;14.45;;;8.25;;
2748;SDS011;1382;52.142;11.618;2022-11-20T04:29:39;9.05;;;6.90;;
2748;SDS011;1382;52.142;11.618;2022-11-20T04:32:05;12.38;;;7.40;;
2748;SDS011;1382;52.142;11.618;2022-11-20T04:34:32;13.32;;;8.48;;
2748;SDS011;1382;52.142;11.618;2022-11-20T04:36:59;14.20;;;8.20;;
2748;SDS011;1382;52.142;11.618;2022-11-20T04:39:27;16.47;;;9.70;;
2748;SDS011;1382;52.142;11.618;2022-11-20T04:41:54;15.07;;;9.60;;
2748;SDS011;1382;52.142;11.618;2022-11-20T04:44:21;15.00;;;8.70;;
2748;SDS011;1382;52.142;11.618;2022-11-20T04:46:48;14.17;;;8.57;;
2748;SDS011;1382;52.142;11.618;2022-11-20T04:49:14;12.85;;;8.73;;
2748;SDS011;1382;52.142;11.618;2022-11-20T04:51:41;12.27;;;9.97;;
2748;SDS011;1382;52.142;11.618;2022-11-20T04:54:08;15.10;;;9.70;;
2748;SDS011;1382;52.142;11.618;2022-11-20T04:56:38;13.30;;;7.47;;
2748;SDS011;1382;52.142;11.618;2022-11-20T04:59:05;15.10;;;9.63;;
2748;SDS011;1382;52.142;11.618;2022-11-20T05:01:32;13.10;;;7.90;;
2748;SDS011;1382;52.142;11.618;2022-11-20T05:03:58;11.60;;;8.23;;
2748;SDS011;1382;52.142;11.618;2022-11-20T05:06:25;13.73;;;6.63;;
2748;SDS011;1382;52.142;11.618;2022-11-20T05:08:52;14.98;;;9.15;;
2748;SDS011;1382;52.142;11.618;2022-11-20T05:11:19;8.45;;;6.32;;
2748;SDS011;1382;52.142;11.618;2022-11-20T05:13:48;12.17;;;8.33;;
2748;SDS011;1382;52.142;11.618;2022-11-20T05:16:16;13.27;;;8.13;;
2748;SDS011;1382;52.142;11.618;2022-11-20T05:18:45;13.90;;;7.77;;
2748;SDS011;1382;52.142;11.618;2022-11-20T05:21:12;14.73;;;6.67;;
2748;SDS011;1382;52.142;11.618;2022-11-20T05:23:40;15.40;;;8.43;;
2748;SDS011;1382;52.142;11.618;2022-11-20T05:26:08;14.03;;;8.13;;
2748;SDS011;1382;52.142;11.618;2022-11-20T05:28:38;15.82;;;7.63;;
2748;SDS011;1382;52.142;11.618;2022-11-20T05:31:07;12.13;;;8.70;;
2748;SDS011;1382;52.142;11.618;2022-11-20T05:33:35;12.53;;;8.13;;
2748;SDS011;1382;52.142;11.618;2022-11-20T05:36:02;10.70;;;7.43;;
2748;SDS011;1382;52.142;11.618;2022-11-20T05:38:30;16.73;;;8.10;;
2748;SDS011;1382;52.142;11.618;2022-11-20T05:41:02;9.55;;;6.85;;
2748;SDS011;1382;52.142;11.618;2022-11-20T05:43:31;14.35;;;7.90;;
2748;SDS011;1382;52.142;11.618;2022-11-20T05:45:58;13.60;;;7.90;;
2748;SDS011;1382;52.142;11.618;2022-11-20T05:48:26;12.60;;;7.40;;
2748;SDS011;1382;52.142;11.618;2022-11-20T05:50:53;13.25;;;6.97;;
2748;SDS011;1382;52.142;11.618;2022-11-20T05:53:20;11.53;;;7.10;;
2748;SDS011;1382;52.142;11.618;2022-11-20T05:55:46;11.65;;;6.75;;
2748;SDS011;1382;52.142;11.618;2022-11-20T05:58:22;10.57;;;7.32;;
2748;SDS011;1382;52.142;11.618;2022-11-20T06:00:49;9.77;;;6.63;;
2748;SDS011;1382;52.142;11.618;2022-11-20T06:03:15;9.45;;;6.90;;
2748;SDS011;1382;52.142;11.618;2022-11-20T06:05:43;10.73;;;6.43;;
2748;SDS011;1382;52.142;11.618;2022-11-20T06:08:10;16.17;;;8.70;;
2748;SDS011;1382;52.142;11.618;2022-11-20T06:10:37;10.55;;;7.00;;
2748;SDS011;1382;52.142;11.618;2022-11-20T06:13:04;12.35;;;6.63;;
2748;SDS011;1382;52.142;11.618;2022-11-20T06:15:30;9.27;;;5.60;;
2748;SDS011;1382;52.142;11.618;2022-11-20T06:17:57;11.53;;;7.87;;
2748;SDS011;1382;52.142;11.618;2022-11-20T06:20:24;9.70;;;6.93;;
2748;SDS011;1382;52.142;11.618;2022-11-20T06:22:52;8.82;;;5.20;;
2748;SDS011;1382;52.142;11.618;2022-11-20T06:25:19;15.67;;;8.70;;
2748;SDS011;1382;52.142;11.618;2022-11-20T06:27:45;10.45;;;7.28;;
2748;SDS011;1382;52.142;11.618;2022-11-20T06:30:12;12.75;;;7.43;;
2748;SDS011;1382;52.142;11.618;2022-11-20T06:32:39;12.50;;;6.70;;
2748;SDS011;1382;52.142;11.618;2022-11-20T06:35:06;9.75;;;6.30;;
2748;SDS011;1382;52.142;11.618;2022-11-20T06:37:33;13.63;;;5.80;;
2748;SDS011;1382;52.142;11.618;2022-11-20T06:40:02;9.10;;;6.20;;
2748;SDS011;1382;52.142;11.618;2022-11-20T06:42:29;10.80;;;6.40;;
2748;SDS011;1382;52.142;11.618;2022-11-20T06:44:56;10.15;;;6.25;;
2748;SDS011;1382;52.142;11.618;2022-11-20T06:47:22;8.85;;;6.30;;
2748;SDS011;1382;52.142;11.618;2022-11-20T06:49:49;10.25;;;6.25;;
2748;SDS011;1382;52.142;11.618;2022-11-20T06:52:16;11.90;;;6.22;;
2748;SDS011;1382;52.142;11.618;2022-11-20T06:54:42;8.60;;;5.25;;
2748;SDS011;1382;52.142;11.618;2022-11-20T06:57:11;11.23;;;5.45;;
2748;SDS011;1382;52.142;11.618;2022-11-20T06:59:37;10.52;;;5.97;;
2748;SDS011;1382;52.142;11.618;2022-11-20T07:02:04;14.80;;;8.38;;
2748;SDS011;1382;52.142;11.618;2022-11-20T07:04:31;9.52;;;6.50;;
2748;SDS011;1382;52.142;11.618;2022-11-20T07:06:58;10.10;;;7.53;;
2748;SDS011;1382;52.142;11.618;2022-11-20T07:09:24;12.73;;;6.38;;
2748;SDS011;1382;52.142;11.618;2022-11-20T07:11:52;11.98;;;7.47;;
2748;SDS011;1382;52.142;11.618;2022-11-20T07:14:20;9.57;;;6.18;;
2748;SDS011;1382;52.142;11.618;2022-11-20T07:16:46;13.65;;;7.30;;
2748;SDS011;1382;52.142;11.618;2022-11-20T07:19:13;9.00;;;5.82;;
2748;SDS011;1382;52.142;11.618;2022-11-20T07:21:40;6.75;;;4.90;;
2748;SDS011;1382;52.142;11.618;2022-11-20T07:24:07;9.15;;;4.88;;
2748;SDS011;1382;52.142;11.618;2022-11-20T07:26:33;12.50;;;5.55;;
2748;SDS011;1382;52.142;11.618;2022-11-20T07:29:00;12.23;;;6.25;;
2748;SDS011;1382;52.142;11.618;2022-11-20T07:31:28;10.05;;;6.60;;
2748;SDS011;1382;52.142;11.618;2022-11-20T07:33:55;11.05;;;7.03;;
2748;SDS011;1382;52.142;11.618;2022-11-20T07:36:21;13.18;;;7.60;;
2748;SDS011;1382;52.142;11.618;2022-11-20T07:38:48;11.77;;;8.02;;
2748;SDS011;1382;52.142;11.618;2022-11-20T07:41:15;9.97;;;6.13;;
2748;SDS011;1382;52.142;11.618;2022-11-20T07:43:42;11.63;;;6.30;;
2748;SDS011;1382;52.142;11.618;2022-11-20T07:46:09;7.90;;;5.63;;
2748;SDS011;1382;52.142;11.618;2022-11-20T07:48:37;10.73;;;5.05;;
2748;SDS011;1382;52.142;11.618;2022-11-20T07:51:04;11.27;;;6.47;;
2748;SDS011;1382;52.142;11.618;2022-11-20T07:53:30;14.63;;;7.90;;
2748;SDS011;1382;52.142;11.618;2022-11-20T07:55:59;8.55;;;5.15;;
2748;SDS011;1382;52.142;11.618;2022-11-20T07:58:26;7.97;;;6.13;;
2748;SDS011;1382;52.142;11.618;2022-11-20T08:00:54;12.15;;;7.13;;
2748;SDS011;1382;52.142;11.618;2022-11-20T08:03:21;11.98;;;7.05;;
2748;SDS011;1382;52.142;11.618;2022-11-20T08:05:52;9.97;;;6.63;;
2748;SDS011;1382;52.142;11.618;2022-11-20T08:08:19;8.97;;;6.63;;
2748;SDS011;1382;52.142;11.618;2022-11-20T08:10:46;10.52;;;6.80;;
2748;SDS011;1382;52.142;11.618;2022-11-20T08:13:12;9.03;;;6.33;;
2748;SDS011;1382;52.142;11.618;2022-11-20T08:15:39;9.63;;;7.38;;
2748;SDS011;1382;52.142;11.618;2022-11-20T08:18:07;10.63;;;5.83;;
2748;SDS011;1382;52.142;11.618;2022-11-20T08:20:57;12.47;;;6.70;;
2748;SDS011;1382;52.142;11.618;2022-11-20T08:23:23;7.73;;;4.73;;
2748;SDS011;1382;52.142;11.618;2022-11-20T08:25:50;9.97;;;6.50;;
2748;SDS011;1382;52.142;11.618;2022-11-20T08:28:17;9.27;;;6.57;;
2748;SDS011;1382;52.142;11.618;2022-11-20T08:30:47;8.90;;;5.50;;
2748;SDS011;1382;52.142;11.618;2022-11-20T08:33:14;10.97;;;7.30;;
2748;SDS011;1382;52.142;11.618;2022-11-20T08:35:41;13.50;;;7.70;;
2748;SDS011;1382;52.142;11.618;2022-11-20T08:38:09;10.30;;;7.50;;
2748;SDS011;1382;52.142;11.618;2022-11-20T08:40:36;10.43;;;6.70;;
2748;SDS011;1382;52.142;11.618;2022-11-20T08:43:03;8.60;;;6.60;;
2748;SDS011;1382;52.142;11.618;2022-11-20T08:45:30;9.63;;;6.10;;
2748;SDS011;1382;52.142;11.618;2022-11-20T08:48:00;9.57;;;6.23;;
2748;SDS011;1382;52.142;11.618;2022-11-20T08:50:28;9.33;;;6.17;;
2748;SDS011;1382;52.142;11.618;2022-11-20T08:53:01;12.20;;;5.63;;
2748;SDS011;1382;52.142;11.618;2022-11-20T08:55:30;11.00;;;6.37;;
2748;SDS011;1382;52.142;11.618;2022-11-20T08:57:56;7.80;;;5.80;;
2748;SDS011;1382;52.142;11.618;2022-11-20T09:00:23;11.90;;;6.83;;
2748;SDS011;1382;52.142;11.618;2022-11-20T09:02:50;9.27;;;6.00;;
2748;SDS011;1382;52.142;11.618;2022-11-20T09:05:17;7.63;;;5.57;;
2748;SDS011;1382;52.142;11.618;2022-11-20T09:07:44;8.70;;;5.40;;
2748;SDS011;1382;52.142;11.618;2022-11-20T09:10:10;7.93;;;5.30;;
2748;SDS011;1382;52.142;11.618;2022-11-20T09:12:54;7.50;;;5.17;;
2748;SDS011;1382;52.142;11.618;2022-11-20T09:15:22;9.73;;;6.20;;
2748;SDS011;1382;52.142;11.618;2022-11-20T09:17:52;7.17;;;5.60;;
2748;SDS011;1382;52.142;11.618;2022-11-20T09:20:19;9.03;;;5.60;;
2748;SDS011;1382;52.142;11.618;2022-11-20T09:22:46;9.60;;;7.30;;
2748;SDS011;1382;52.142;11.618;2022-11-20T09:25:13;9.33;;;6.07;;
2748;SDS011;1382;52.142;11.618;2022-11-20T09:27:40;11.43;;;5.77;;
2748;SDS011;1382;52.142;11.618;2022-11-20T09:30:08;7.20;;;5.93;;
2748;SDS011;1382;52.142;11.618;2022-11-20T09:32:36;8.37;;;6.10;;
2748;SDS011;1382;52.142;11.618;2022-11-20T09:35:05;10.40;;;6.50;;
2748;SDS011;1382;52.142;11.618;2022-11-20T09:37:32;11.13;;;6.17;;
2748;SDS011;1382;52.142;11.618;2022-11-20T09:39:59;7.40;;;5.50;;
2748;SDS011;1382;52.142;11.618;2022-11-20T09:42:28;6.68;;;5.35;;
2748;SDS011;1382;52.142;11.618;2022-11-20T09:45:06;14.47;;;7.50;;
2748;SDS011;1382;52.142;11.618;2022-11-20T09:47:52;12.33;;;5.90;;
2748;SDS011;1382;52.142;11.618;2022-11-20T09:50:31;7.97;;;5.77;;
2748;SDS011;1382;52.142;11.618;2022-11-20T09:53:04;8.20;;;5.47;;
2748;SDS011;1382;52.142;11.618;2022-11-20T09:55:42;7.80;;;5.60;;
2748;SDS011;1382;52.142;11.618;2022-11-20T09:58:13;8.03;;;4.80;;
2748;SDS011;1382;52.142;11.618;2022-11-20T10:00:48;8.53;;;5.37;;
2748;SDS011;1382;52.142;11.618;2022-11-20T10:03:16;7.70;;;5.50;;
2748;SDS011;1382;52.142;11.618;2022-11-20T10:05:47;7.70;;;5.37;;
2748;SDS011;1382;52.142;11.618;2022-11-20T10:08:19;11.57;;;6.27;;
2748;SDS011;1382;52.142;11.618;2022-11-20T10:10:49;11.80;;;6.67;;
2748;SDS011;1382;52.142;11.618;2022-11-20T10:13:23;10.63;;;5.70;;
2748;SDS011;1382;52.142;11.618;2022-11-20T10:16:03;10.77;;;6.63;;
2748;SDS011;1382;52.142;11.618;2022-11-20T10:18:44;8.33;;;5.20;;
2748;SDS011;1382;52.142;11.618;2022-11-20T10:21:26;6.93;;;5.27;;
2748;SDS011;1382;52.142;11.618;2022-11-20T10:24:03;13.03;;;6.17;;
2748;SDS011;1382;52.142;11.618;2022-11-20T10:26:43;8.00;;;5.50;;
2748;SDS011;1382;52.142;11.618;2022-11-20T10:29:15;8.17;;;5.10;;
2748;SDS011;1382;52.142;11.618;2022-11-20T10:31:45;11.13;;;5.63;;
2748;SDS011;1382;52.142;11.618;2022-11-20T10:34:18;6.37;;;5.53;;
2748;SDS011;1382;52.142;11.618;2022-11-20T10:36:49;10.23;;;5.07;;
2748;SDS011;1382;52.142;11.618;2022-11-20T10:39:22;7.50;;;6.17;;
2748;SDS011;1382;52.142;11.618;2022-11-20T10:41:54;8.43;;;5.00;;
2748;SDS011;1382;52.142;11.618;2022-11-20T10:44:25;9.10;;;6.00;;
2748;SDS011;1382;52.142;11.618;2022-11-20T10:46:55;9.10;;;5.40;;
2748;SDS011;1382;52.142;11.618;2022-11-20T10:49:22;11.93;;;5.90;;
2748;SDS011;1382;52.142;11.618;2022-11-20T10:51:52;6.10;;;3.87;;
2748;SDS011;1382;52.142;11.618;2022-11-20T10:54:27;5.10;;;3.83;;
2748;SDS011;1382;52.142;11.618;2022-11-20T10:57:02;6.77;;;5.00;;
2748;SDS011;1382;52.142;11.618;2022-11-20T10:59:41;5.97;;;4.90;;
2748;SDS011;1382;52.142;11.618;2022-11-20T11:02:32;7.33;;;5.13;;
2748;SDS011;1382;52.142;11.618;2022-11-20T11:05:08;7.17;;;5.50;;
2748;SDS011;1382;52.142;11.618;2022-11-20T11:07:42;11.10;;;6.77;;
2748;SDS011;1382;52.142;11.618;2022-11-20T11:10:13;10.90;;;7.40;;
2748;SDS011;1382;52.142;11.618;2022-11-20T11:12:43;9.67;;;5.87;;
2748;SDS011;1382;52.142;11.618;2022-11-20T11:15:12;5.80;;;4.37;;
2748;SDS011;1382;52.142;11.618;2022-11-20T11:17:51;7.40;;;5.33;;
2748;SDS011;1382;52.142;11.618;2022-11-20T11:20:19;4.77;;;3.73;;
2748;SDS011;1382;52.142;11.618;2022-11-20T11:22:48;4.10;;;3.50;;
2748;SDS011;1382;52.142;11.618;2022-11-20T11:25:21;8.10;;;5.10;;
2748;SDS011;1382;52.142;11.618;2022-11-20T11:27:53;9.90;;;6.00;;
2748;SDS011;1382;52.142;11.618;2022-11-20T11:30:21;7.67;;;5.10;;
2748;SDS011;1382;52.142;11.618;2022-11-20T11:32:49;7.87;;;5.00;;
2748;SDS011;1382;52.142;11.618;2022-11-20T11:35:21;7.97;;;5.37;;
2748;SDS011;1382;52.142;11.618;2022-11-20T11:37:50;10.93;;;4.63;;
2748;SDS011;1382;52.142;11.618;2022-11-20T11:40:19;5.40;;;4.20;;
2748;SDS011;1382;52.142;11.618;2022-11-20T11:42:52;6.20;;;4.30;;
2748;SDS011;1382;52.142;11.618;2022-11-20T11:45:22;6.30;;;4.60;;
2748;SDS011;1382;52.142;11.618;2022-11-20T11:47:50;6.10;;;4.30;;
2748;SDS011;1382;52.142;11.618;2022-11-20T11:50:21;4.40;;;3.30;;
2748;SDS011;1382;52.142;11.618;2022-11-20T11:52:51;6.07;;;4.60;;
2748;SDS011;1382;52.142;11.618;2022-11-20T11:55:29;4.50;;;3.90;;
2748;SDS011;1382;52.142;11.618;2022-11-20T11:58:02;8.40;;;5.17;;
2748;SDS011;1382;52.142;11.618;2022-11-20T12:00:41;5.63;;;4.53;;
2748;SDS011;1382;52.142;11.618;2022-11-20T12:03:16;5.57;;;4.30;;
2748;SDS011;1382;52.142;11.618;2022-11-20T12:05:56;7.23;;;4.17;;
2748;SDS011;1382;52.142;11.618;2022-11-20T12:08:27;10.40;;;5.60;;
2748;SDS011;1382;52.142;11.618;2022-11-20T12:11:00;5.37;;;4.43;;
2748;SDS011;1382;52.142;11.618;2022-11-20T12:13:39;8.70;;;5.00;;
2748;SDS011;1382;52.142;11.618;2022-11-20T12:16:11;6.77;;;5.00;;
2748;SDS011;1382;52.142;11.618;2022-11-20T12:18:40;7.43;;;5.00;;
2748;SDS011;1382;52.142;11.618;2022-11-20T12:21:17;7.23;;;5.23;;
2748;SDS011;1382;52.142;11.618;2022-11-20T12:23:50;5.63;;;3.97;;
2748;SDS011;1382;52.142;11.618;2022-11-20T12:26:27;9.03;;;5.30;;
2748;SDS011;1382;52.142;11.618;2022-11-20T12:29:06;7.13;;;4.60;;
2748;SDS011;1382;52.142;11.618;2022-11-20T12:31:47;5.53;;;4.83;;
2748;SDS011;1382;52.142;11.618;2022-11-20T12:34:24;7.37;;;4.83;;
2748;SDS011;1382;52.142;11.618;2022-11-20T12:37:13;5.77;;;4.30;;
2748;SDS011;1382;52.142;11.618;2022-11-20T12:39:47;6.93;;;5.10;;
2748;SDS011;1382;52.142;11.618;2022-11-20T12:42:19;6.67;;;4.60;;
2748;SDS011;1382;52.142;11.618;2022-11-20T12:45:10;12.10;;;5.87;;
2748;SDS011;1382;52.142;11.618;2022-11-20T12:48:01;7.97;;;4.97;;
2748;SDS011;1382;52.142;11.618;2022-11-20T12:50:43;4.87;;;4.37;;
2748;SDS011;1382;52.142;11.618;2022-11-20T12:53:39;10.07;;;5.60;;
2748;SDS011;1382;52.142;11.618;2022-11-20T12:56:14;9.33;;;5.70;;
2748;SDS011;1382;52.142;11.618;2022-11-20T12:58:51;5.77;;;4.63;;
2748;SDS011;1382;52.142;11.618;2022-11-20T13:01:30;5.63;;;4.40;;
2748;SDS011;1382;52.142;11.618;2022-11-20T13:04:07;5.63;;;4.30;;
2748;SDS011;1382;52.142;11.618;2022-11-20T13:06:43;6.43;;;4.93;;
2748;SDS011;1382;52.142;11.618;2022-11-20T13:09:12;8.27;;;4.93;;
2748;SDS011;1382;52.142;11.618;2022-11-20T13:11:42;8.40;;;4.73;;
2748;SDS011;1382;52.142;11.618;2022-11-20T13:14:17;6.13;;;4.70;;
2748;SDS011;1382;52.142;11.618;2022-11-20T13:16:53;6.40;;;5.27;;
2748;SDS011;1382;52.142;11.618;2022-11-20T13:19:30;5.83;;;4.07;;
2748;SDS011;1382;52.142;11.618;2022-11-20T13:21:58;7.40;;;4.87;;
2748;SDS011;1382;52.142;11.618;2022-11-20T13:24:27;5.90;;;4.43;;
2748;SDS011;1382;52.142;11.618;2022-11-20T13:27:05;6.43;;;3.67;;
2748;SDS011;1382;52.142;11.618;2022-11-20T13:29:45;6.37;;;4.20;;
2748;SDS011;1382;52.142;11.618;2022-11-20T13:32:14;8.57;;;4.83;;
2748;SDS011;1382;52.142;11.618;2022-11-20T13:34:51;7.73;;;4.60;;
2748;SDS011;1382;52.142;11.618;2022-11-20T13:37:24;8.53;;;4.83;;
2748;SDS011;1382;52.142;11.618;2022-11-20T13:40:04;5.60;;;4.80;;
2748;SDS011;1382;52.142;11.618;2022-11-20T13:42:31;9.10;;;5.10;;
2748;SDS011;1382;52.142;11.618;2022-11-20T13:45:08;7.90;;;4.90;;
2748;SDS011;1382;52.142;11.618;2022-11-20T13:47:37;7.10;;;4.90;;
2748;SDS011;1382;52.142;11.618;2022-11-20T13:50:13;8.60;;;5.27;;
2748;SDS011;1382;52.142;11.618;2022-11-20T13:52:42;7.67;;;5.07;;
2748;SDS011;1382;52.142;11.618;2022-11-20T13:55:21;5.90;;;5.30;;
2748;SDS011;1382;52.142;11.618;2022-11-20T13:58:05;7.60;;;5.60;;
2748;SDS011;1382;52.142;11.618;2022-11-20T14:00:43;11.03;;;6.23;;
2748;SDS011;1382;52.142;11.618;2022-11-20T14:03:16;7.33;;;4.37;;
2748;SDS011;1382;52.142;11.618;2022-11-20T14:06:10;7.00;;;4.53;;
2748;SDS011;1382;52.142;11.618;2022-11-20T14:08:40;7.10;;;4.77;;
2748;SDS011;1382;52.142;11.618;2022-11-20T14:11:14;5.43;;;4.20;;
2748;SDS011;1382;52.142;11.618;2022-11-20T14:13:52;8.30;;;4.97;;
2748;SDS011;1382;52.142;11.618;2022-11-20T14:16:22;11.10;;;5.70;;
2748;SDS011;1382;52.142;11.618;2022-11-20T14:18:49;11.67;;;5.97;;
2748;SDS011;1382;52.142;11.618;2022-11-20T14:21:23;8.13;;;5.80;;
2748;SDS011;1382;52.142;11.618;2022-11-20T14:23:52;7.53;;;4.73;;
2748;SDS011;1382;52.142;11.618;2022-11-20T14:26:21;9.13;;;3.80;;
2748;SDS011;1382;52.142;11.618;2022-11-20T14:28:48;9.60;;;4.23;;
2748;SDS011;1382;52.142;11.618;2022-11-20T14:31:18;6.30;;;4.40;;
2748;SDS011;1382;52.142;11.618;2022-11-20T14:33:50;6.93;;;4.00;;
2748;SDS011;1382;52.142;11.618;2022-11-20T14:36:18;6.93;;;4.50;;
2748;SDS011;1382;52.142;11.618;2022-11-20T14:38:47;5.00;;;4.07;;
2748;SDS011;1382;52.142;11.618;2022-11-20T14:41:17;8.30;;;4.80;;
2748;SDS011;1382;52.142;11.618;2022-11-20T14:43:48;11.67;;;6.03;;
2748;SDS011;1382;52.142;11.618;2022-11-20T14:46:19;8.00;;;4.97;;
2748;SDS011;1382;52.142;11.618;2022-11-20T14:48:47;9.27;;;5.10;;
2748;SDS011;1382;52.142;11.618;2022-11-20T14:51:29;5.93;;;4.40;;
2748;SDS011;1382;52.142;11.618;2022-11-20T14:54:07;9.57;;;5.67;;
2748;SDS011;1382;52.142;11.618;2022-11-20T14:56:35;7.70;;;4.70;;
2748;SDS011;1382;52.142;11.618;2022-11-20T14:59:03;6.73;;;4.60;;
2748;SDS011;1382;52.142;11.618;2022-11-20T15:01:31;9.60;;;6.00;;
2748;SDS011;1382;52.142;11.618;2022-11-20T15:03:59;6.63;;;4.77;;
2748;SDS011;1382;52.142;11.618;2022-11-20T15:06:27;7.97;;;5.87;;
2748;SDS011;1382;52.142;11.618;2022-11-20T15:08:55;10.53;;;6.10;;